Time;durP1;ratioP1;P1;durP2;ratioP2;P2;SDS_P1;SDS_P2;PMS_P1;PMS_P2;Temp;Humidity;BMP_temperature;BMP_pressure;BME280_temperature;BME280_humidity;BME280_pressure;Samples;Min_cycle;Max_cycle;Signal;HPM_P1;HPM_P2
2022/08/16 00:01:50;;;;;;;37.50;23.73;;;21.40;99.90;;;;;;5094666;28;20043;-71
2022/08/16 00:04:16;;;;;;;44.53;24.50;;;21.90;98.50;;;;;;5097707;28;20044;-71
2022/08/16 00:06:43;;;;;;;37.38;23.35;;;22.20;99.90;;;;;;5111539;28;20385;-71
2022/08/16 00:09:09;;;;;;;40.72;23.23;;;21.40;99.90;;;;;;5103381;28;20044;-71
2022/08/16 00:11:35;;;;;;;35.05;24.20;;;22.80;99.90;;;;;;5077539;28;20088;-70
2022/08/16 00:14:04;;;;;;;37.58;25.25;;;21.40;99.90;;;;;;5099494;28;20101;-71
2022/08/16 00:16:32;;;;;;;35.58;22.90;;;23.50;99.90;;;;;;5106368;28;20046;-71
2022/08/16 00:18:59;;;;;;;32.80;23.65;;;23.30;99.90;;;;;;5102900;28;20502;-71
2022/08/16 00:21:25;;;;;;;33.97;22.67;;;;;;;;;;5097777;28;20040;-71
2022/08/16 00:23:52;;;;;;;31.80;23.70;;;23.10;99.90;;;;;;5107350;28;20036;-71
2022/08/16 00:26:18;;;;;;;40.15;23.17;;;21.20;99.90;;;;;;5095547;28;20469;-71
2022/08/16 00:28:44;;;;;;;36.22;22.33;;;;;;;;;;5108477;28;20039;-71
2022/08/16 00:31:09;;;;;;;35.20;21.80;;;22.60;99.90;;;;;;5094027;28;20040;-71
2022/08/16 00:33:35;;;;;;;37.05;23.02;;;;;;;;;;5098054;28;20110;-71
2022/08/16 00:36:01;;;;;;;31.42;22.60;;;23.00;99.90;;;;;;5103206;28;20079;-71
2022/08/16 00:38:27;;;;;;;40.38;24.20;;;;;;;;;;5109889;28;20097;-71
2022/08/16 00:40:54;;;;;;;42.13;23.27;;;21.30;99.90;;;;;;5106270;28;20042;-71
2022/08/16 00:43:30;;;;;;;36.55;20.35;;;22.90;99.90;;;;;;5104615;28;20046;-71
2022/08/16 00:46:21;;;;;;;36.83;21.27;;;21.30;99.40;;;;;;5113663;28;20118;-71
2022/08/16 00:48:50;;;;;;;31.73;20.45;;;21.70;99.90;;;;;;5109775;28;20036;-71
2022/08/16 00:51:17;;;;;;;37.10;22.27;;;22.90;99.90;;;;;;5093740;28;20047;-71
2022/08/16 00:53:43;;;;;;;37.53;21.33;;;23.30;99.90;;;;;;5103163;28;20035;-71
2022/08/16 00:56:12;;;;;;;29.02;21.38;;;22.40;99.90;;;;;;5094721;28;20040;-71
2022/08/16 00:58:41;;;;;;;35.83;21.17;;;21.30;99.90;;;;;;5095200;28;20369;-71
2022/08/16 01:01:07;;;;;;;37.35;22.77;;;21.40;99.90;;;;;;5114009;28;20043;-71
2022/08/16 01:03:34;;;;;;;29.35;21.45;;;22.90;99.90;;;;;;5113502;28;20039;-71
2022/08/16 01:06:01;;;;;;;41.55;24.30;;;22.20;96.30;;;;;;5112455;28;20035;-71
2022/08/16 01:08:27;;;;;;;37.90;23.63;;;22.40;99.90;;;;;;5115050;28;20074;-71
2022/08/16 01:10:54;;;;;;;37.15;23.50;;;23.30;99.90;;;;;;5094683;28;20044;-71
2022/08/16 01:13:26;;;;;;;30.70;22.33;;;22.70;99.90;;;;;;5111570;28;20438;-71
2022/08/16 01:15:54;;;;;;;;;;;22.20;97.40;;;;;;5098753;28;20098;-71
2022/08/16 01:18:22;;;;;;;34.05;21.42;;;21.10;99.90;;;;;;5127312;27;19920;-71
2022/08/16 01:21:24;;;;;;;38.22;22.55;;;22.40;99.90;;;;;;5092864;28;20047;-71
2022/08/16 01:24:14;;;;;;;33.72;22.00;;;21.80;99.90;;;;;;5095655;28;20051;-71
2022/08/16 01:26:41;;;;;;;32.47;21.65;;;21.50;99.90;;;;;;5101753;28;20444;-71
2022/08/16 01:29:12;;;;;;;36.05;22.88;;;23.20;99.90;;;;;;5110673;28;20039;-71
2022/08/16 01:31:38;;;;;;;34.38;23.80;;;21.00;98.40;;;;;;5093280;28;20040;-71
2022/08/16 01:34:04;;;;;;;39.33;23.80;;;22.70;99.90;;;;;;5092983;28;20052;-71
2022/08/16 01:36:31;;;;;;;37.78;23.63;;;21.30;99.90;;;;;;5106578;28;20369;-71
2022/08/16 01:38:57;;;;;;;38.22;24.45;;;23.10;99.90;;;;;;5094148;28;20539;-71
2022/08/16 01:41:29;;;;;;;37.90;24.98;;;22.70;99.90;;;;;;5111528;28;20126;-71
2022/08/16 01:43:55;;;;;;;38.90;25.98;;;22.50;99.90;;;;;;5107081;28;20032;-70
2022/08/16 01:46:44;;;;;;;34.45;23.23;;;21.90;96.30;;;;;;5110725;28;20119;-71
2022/08/16 01:49:22;;;;;;;36.50;24.88;;;22.10;96.40;;;;;;5112656;28;20067;-71
2022/08/16 01:51:53;;;;;;;43.15;25.17;;;20.80;99.90;;;;;;5076708;28;20044;-71
2022/08/16 01:54:20;;;;;;;43.03;24.35;;;22.70;99.90;;;;;;5087059;28;20036;-71
2022/08/16 01:56:46;;;;;;;35.83;24.63;;;;;;;;;;5112464;28;20376;-71
2022/08/16 01:59:13;;;;;;;41.13;23.95;;;22.00;97.60;;;;;;5114332;28;20433;-71
2022/08/16 02:01:39;;;;;;;39.58;26.33;;;;;;;;;;5079855;28;20051;-70
2022/08/16 02:04:06;;;;;;;38.88;24.50;;;22.90;99.90;;;;;;5112441;28;20043;-70
2022/08/16 02:06:32;;;;;;;43.75;26.55;;;21.50;99.90;;;;;;5096453;28;20098;-70
2022/08/16 02:08:58;;;;;;;39.20;26.38;;;21.90;99.90;;;;;;5075443;28;20051;-70
2022/08/16 02:11:25;;;;;;;35.95;25.65;;;22.30;99.90;;;;;;5106103;28;20507;-71
2022/08/16 02:13:51;;;;;;;35.03;24.88;;;;;;;;;;5092592;28;20047;-71
2022/08/16 02:16:17;;;;;;;39.90;26.38;;;20.70;98.40;;;;;;5075681;28;20044;-70
2022/08/16 02:18:44;;;;;;;45.10;27.52;;;21.50;99.90;;;;;;5104879;28;20089;-70
2022/08/16 02:21:12;;;;;;;40.47;26.80;;;21.30;99.90;;;;;;5085168;28;20446;-70
2022/08/16 02:23:38;;;;;;;41.67;25.52;;;22.70;99.90;;;;;;5091949;28;20043;-70
2022/08/16 02:26:04;;;;;;;48.80;28.17;;;22.50;99.90;;;;;;5106060;28;20040;-70
2022/08/16 02:28:31;;;;;;;43.05;27.17;;;21.40;99.90;;;;;;5090020;28;20088;-70
2022/08/16 02:31:01;;;;;;;41.25;25.65;;;22.40;99.90;;;;;;5112437;28;20043;-70
2022/08/16 02:33:27;;;;;;;38.92;26.15;;;22.40;99.90;;;;;;5099497;28;20040;-70
2022/08/16 02:35:53;;;;;;;44.85;29.40;;;;;;;;;;5096795;28;20066;-70
2022/08/16 02:38:19;;;;;;;43.60;27.40;;;22.60;99.90;;;;;;5099828;28;20047;-70
2022/08/16 02:40:45;;;;;;;42.95;26.83;;;;;;;;;;5075130;28;20048;-71
2022/08/16 02:43:11;;;;;;;38.33;26.17;;;21.80;99.90;;;;;;5098783;28;20087;-70
2022/08/16 02:45:37;;;;;;;42.60;27.13;;;20.80;99.90;;;;;;5093052;28;20036;-70
2022/08/16 02:48:03;;;;;;;38.97;26.20;;;20.30;99.90;;;;;;5103806;28;20450;-71
2022/08/16 02:50:29;;;;;;;41.95;27.80;;;;;;;;;;5102636;28;20531;-70
2022/08/16 02:52:55;;;;;;;36.75;27.27;;;20.80;99.90;;;;;;5104748;28;20075;-71
2022/08/16 02:55:22;;;;;;;39.22;26.77;;;;;;;;;;5091842;28;20079;-70
2022/08/16 02:57:48;;;;;;;39.80;27.98;;;21.40;98.70;;;;;;5080377;28;20043;-71
2022/08/16 03:00:15;;;;;;;41.58;27.63;;;22.00;99.90;;;;;;5112033;28;20399;-70
2022/08/16 03:02:44;;;;;;;52.20;27.55;;;21.60;99.90;;;;;;5082632;28;20039;-71
2022/08/16 03:05:12;;;;;;;46.45;28.70;;;20.40;99.90;;;;;;5091905;28;20123;-71
2022/08/16 03:07:38;;;;;;;44.45;28.08;;;20.70;99.90;;;;;;5094455;28;20119;-71
2022/08/16 03:10:07;;;;;;;40.20;28.15;;;22.30;99.90;;;;;;5113611;28;20042;-71
2022/08/16 03:12:33;;;;;;;37.97;26.10;;;21.90;99.90;;;;;;5114540;28;20094;-71
2022/08/16 03:14:59;;;;;;;46.28;28.08;;;20.50;99.90;;;;;;5116263;28;20078;-71
2022/08/16 03:17:25;;;;;;;42.13;27.73;;;22.00;99.90;;;;;;5106845;28;20043;-71
2022/08/16 03:19:52;;;;;;;49.13;29.08;;;20.00;99.90;;;;;;5112393;28;20036;-71
2022/08/16 03:22:19;;;;;;;45.00;28.13;;;22.00;99.90;;;;;;5100508;28;20368;-71
2022/08/16 03:24:45;;;;;;;46.92;28.63;;;20.90;99.10;;;;;;5096466;28;20032;-71
2022/08/16 03:27:11;;;;;;;45.90;28.13;;;21.10;99.90;;;;;;5095254;28;20032;-71
2022/08/16 03:29:37;;;;;;;44.80;30.30;;;;;;;;;;5111225;28;20035;-71
2022/08/16 03:32:03;;;;;;;44.80;29.90;;;21.10;98.80;;;;;;5113882;28;20040;-71
2022/08/16 03:34:32;;;;;;;43.05;28.90;;;21.30;99.00;;;;;;5110204;28;20976;-71
2022/08/16 03:36:59;;;;;;;44.10;30.75;;;20.60;99.90;;;;;;5115470;28;20067;-70
2022/08/16 03:39:25;;;;;;;40.92;29.15;;;21.20;99.60;;;;;;5101637;28;20361;-71
2022/08/16 03:41:52;;;;;;;46.78;29.52;;;21.00;99.90;;;;;;5095103;28;20044;-71
2022/08/16 03:44:19;;;;;;;45.03;30.70;;;20.60;99.90;;;;;;5119416;27;20044;-71
2022/08/16 03:46:44;;;;;;;40.95;29.27;;;21.80;99.90;;;;;;5095157;28;20043;-71
2022/08/16 03:49:11;;;;;;;45.13;30.92;;;20.80;99.60;;;;;;5105518;28;20407;-71
2022/08/16 03:51:38;;;;;;;55.83;31.23;;;19.60;99.90;;;;;;5115287;28;20075;-71
2022/08/16 03:54:04;;;;;;;46.47;30.83;;;19.60;99.90;;;;;;5106461;28;20043;-71
2022/08/16 03:56:30;;;;;;;45.83;31.15;;;21.80;99.90;;;;;;5097846;28;20507;-71
2022/08/16 03:58:56;;;;;;;46.58;31.30;;;19.80;99.90;;;;;;5101340;28;20131;-71
2022/08/16 04:01:23;;;;;;;52.30;31.50;;;20.70;99.30;;;;;;5094278;28;20048;-71
2022/08/16 04:03:50;;;;;;;45.67;32.13;;;21.10;99.90;;;;;;5100312;28;20169;-71
2022/08/16 04:06:16;;;;;;;51.72;31.92;;;20.90;99.90;;;;;;5094620;28;20036;-71
2022/08/16 04:08:42;;;;;;;46.03;31.23;;;;;;;;;;5108825;28;20040;-71
2022/08/16 04:11:08;;;;;;;50.28;31.73;;;21.80;99.90;;;;;;5094056;28;20051;-71
2022/08/16 04:13:34;;;;;;;46.38;31.58;;;19.80;99.90;;;;;;5097349;28;20047;-71
2022/08/16 04:16:01;;;;;;;50.65;30.88;;;19.80;99.90;;;;;;5114853;28;20569;-71
2022/08/16 04:18:28;;;;;;;47.15;31.13;;;21.20;99.90;;;;;;5098723;28;20043;-71
2022/08/16 04:20:53;;;;;;;48.10;32.00;;;19.60;99.90;;;;;;5107408;28;20036;-71
2022/08/16 04:23:20;;;;;;;48.45;31.77;;;20.60;99.60;;;;;;5113933;28;20051;-71
2022/08/16 04:25:46;;;;;;;49.22;31.95;;;19.40;99.90;;;;;;5094214;28;20052;-71
2022/08/16 04:28:12;;;;;;;51.08;33.15;;;21.40;99.90;;;;;;5077341;28;20044;-71
2022/08/16 04:30:38;;;;;;;49.17;32.80;;;20.40;99.90;;;;;;5111087;28;20077;-71
2022/08/16 04:33:05;;;;;;;49.35;31.10;;;19.30;99.90;;;;;;5114772;28;20127;-81
2022/08/16 04:35:31;;;;;;;46.88;30.75;;;19.40;99.90;;;;;;5097599;28;20036;-82
2022/08/16 04:37:57;;;;;;;47.72;29.48;;;20.00;99.90;;;;;;5094270;28;20044;-81
2022/08/16 04:40:24;;;;;;;44.47;31.98;;;19.30;99.90;;;;;;5107701;28;20036;-81
2022/08/16 04:42:50;;;;;;;50.78;31.25;;;19.80;99.90;;;;;;5097460;28;20044;-81
2022/08/16 04:45:16;;;;;;;52.65;31.63;;;;;;;;;;5100532;28;20499;-70
2022/08/16 04:47:43;;;;;;;42.42;31.05;;;21.10;99.90;;;;;;5101173;28;20395;-70
2022/08/16 04:50:12;;;;;;;43.15;30.85;;;21.50;99.90;;;;;;5084942;28;20432;-70
2022/08/16 04:52:38;;;;;;;49.50;31.65;;;20.60;99.80;;;;;;5113265;28;20490;-70
2022/08/16 04:55:10;;;;;;;42.92;31.88;;;19.90;99.90;;;;;;5101109;28;20109;-71
2022/08/16 04:57:37;;;;;;;47.17;31.35;;;19.70;99.90;;;;;;5104949;28;20075;-70
2022/08/16 05:00:07;;;;;;;45.45;30.77;;;20.90;99.90;;;;;;5103457;28;20387;-70
2022/08/16 05:02:33;;;;;;;45.50;31.77;;;;;;;;;;5111125;28;20118;-71
2022/08/16 05:04:59;;;;;;;48.67;32.10;;;19.60;99.90;;;;;;5105162;28;20036;-71
2022/08/16 05:07:25;;;;;;;56.83;31.65;;;;;;;;;;5077745;28;20591;-70
2022/08/16 05:09:51;;;;;;;48.88;31.63;;;;;;;;;;5100372;28;20040;-70
2022/08/16 05:12:16;;;;;;;45.17;31.05;;;19.20;99.90;;;;;;5113449;28;20067;-70
2022/08/16 05:14:42;;;;;;;47.90;31.98;;;20.10;99.90;;;;;;5091134;28;20051;-71
2022/08/16 05:17:08;;;;;;;49.50;29.38;;;19.60;99.90;;;;;;5084487;28;20483;-71
2022/08/16 05:19:34;;;;;;;45.35;29.67;;;;;;;;;;5103987;28;20035;-71
2022/08/16 05:22:00;;;;;;;45.33;31.10;;;;;;;;;;5102239;28;20369;-71
2022/08/16 05:24:26;;;;;;;42.38;30.10;;;;;;;;;;5096426;28;20108;-71
2022/08/16 05:26:52;;;;;;;50.50;30.13;;;;;;;;;;5093144;28;20127;-71
2022/08/16 05:29:18;;;;;;;47.13;31.30;;;;;;;;;;5093336;28;20065;-71
2022/08/16 05:31:44;;;;;;;46.28;31.48;;;19.30;99.90;;;;;;5113174;28;20078;-71
2022/08/16 05:34:10;;;;;;;44.28;30.13;;;;;;;;;;5113004;28;20082;-70
2022/08/16 05:36:36;;;;;;;48.85;30.95;;;21.40;99.90;;;;;;5092327;28;20051;-70
2022/08/16 05:39:05;;;;;;;47.72;30.92;;;19.30;99.90;;;;;;5092288;28;20044;-70
2022/08/16 05:41:31;;;;;;;45.97;30.42;;;;;;;;;;5092197;28;20036;-70
2022/08/16 05:43:59;;;;;;;51.38;31.60;;;19.90;99.90;;;;;;5092591;28;20185;-70
2022/08/16 05:46:25;;;;;;;49.20;30.90;;;21.30;99.90;;;;;;5108337;28;20035;-70
2022/08/16 05:48:51;;;;;;;50.72;32.75;;;21.50;99.90;;;;;;5112970;28;20148;-70
2022/08/16 05:51:18;;;;;;;48.40;31.90;;;21.40;99.90;;;;;;5111140;28;20122;-70
2022/08/16 05:53:44;;;;;;;46.90;30.27;;;21.50;99.90;;;;;;5114573;28;20537;-70
2022/08/16 05:56:10;;;;;;;50.20;34.05;;;20.70;99.90;;;;;;5109102;28;20135;-70
2022/08/16 05:58:36;;;;;;;44.97;32.78;;;21.70;99.90;;;;;;5111020;28;20341;-70
2022/08/16 06:01:03;;;;;;;47.83;31.13;;;;;;;;;;5109359;28;20058;-70
2022/08/16 06:03:28;;;;;;;42.85;31.20;;;21.50;99.90;;;;;;5106577;28;20044;-70
2022/08/16 06:05:55;;;;;;;48.45;32.38;;;20.80;99.90;;;;;;5110133;28;20048;-71
2022/08/16 06:08:21;;;;;;;47.63;30.60;;;21.30;99.90;;;;;;5103386;28;20040;-71
2022/08/16 06:10:47;;;;;;;49.75;33.05;;;;;;;;;;5092383;28;20063;-71
2022/08/16 06:13:12;;;;;;;46.90;30.10;;;21.80;99.90;;;;;;5077898;28;20480;-71
2022/08/16 06:15:38;;;;;;;49.95;33.35;;;21.30;99.90;;;;;;5092278;28;20093;-71
2022/08/16 06:18:04;;;;;;;49.55;32.88;;;;;;;;;;5100569;28;20123;-71
2022/08/16 06:20:30;;;;;;;47.88;32.15;;;20.10;99.90;;;;;;5092149;28;20515;-71
2022/08/16 06:22:57;;;;;;;43.40;30.75;;;21.10;99.90;;;;;;5095036;28;20032;-71
2022/08/16 06:25:25;;;;;;;44.58;30.10;;;21.20;99.90;;;;;;5092230;28;20476;-79
2022/08/16 06:27:51;;;;;;;58.85;33.20;;;22.30;99.90;;;;;;5096132;28;20032;-70
2022/08/16 06:30:18;;;;;;;47.15;31.25;;;22.30;99.90;;;;;;5091417;28;20110;-70
2022/08/16 06:32:44;;;;;;;53.38;34.00;;;20.70;99.90;;;;;;5092972;28;20043;-69
2022/08/16 06:35:10;;;;;;;54.85;33.03;;;;;;;;;;5112044;28;20479;-69
2022/08/16 06:37:36;;;;;;;51.28;31.50;;;20.20;99.90;;;;;;5092345;28;20097;-69
2022/08/16 06:40:03;;;;;;;46.45;32.30;;;22.10;99.90;;;;;;5075158;28;20044;-69
2022/08/16 06:42:29;;;;;;;51.85;32.70;;;20.40;99.90;;;;;;5110466;28;20039;-69
2022/08/16 06:44:55;;;;;;;51.78;34.13;;;;;;;;;;5113944;28;20475;-69
2022/08/16 06:47:21;;;;;;;52.35;34.20;;;;;;;;;;5109449;28;20090;-69
2022/08/16 06:49:46;;;;;;;54.83;33.65;;;22.30;99.90;;;;;;5096079;28;20032;-69
2022/08/16 06:52:12;;;;;;;57.63;36.55;;;;;;;;;;5109772;28;20035;-69
2022/08/16 06:54:38;;;;;;;50.50;33.28;;;22.30;99.90;;;;;;5098005;28;20119;-69
2022/08/16 06:57:05;;;;;;;55.03;35.65;;;;;;;;;;5102886;28;20090;-69
2022/08/16 06:59:31;;;;;;;60.50;38.90;;;21.70;99.50;;;;;;5110497;28;20140;-69
2022/08/16 07:01:58;;;;;;;63.88;36.05;;;22.40;99.90;;;;;;5093102;28;20131;-69
2022/08/16 07:04:24;;;;;;;61.22;38.10;;;22.10;99.90;;;;;;5116683;28;20054;-69
2022/08/16 07:06:50;;;;;;;61.58;35.55;;;22.30;99.90;;;;;;5113865;27;20115;-69
2022/08/16 07:09:16;;;;;;;58.95;36.63;;;;;;;;;;5098203;28;20131;-69
2022/08/16 07:11:42;;;;;;;59.90;36.67;;;21.30;99.90;;;;;;5098417;28;20063;-69
2022/08/16 07:14:08;;;;;;;55.72;35.78;;;22.20;99.90;;;;;;5116214;28;20040;-69
2022/08/16 07:16:34;;;;;;;63.63;36.67;;;;;;;;;;5117193;28;20040;-69
2022/08/16 07:19:00;;;;;;;71.95;37.95;;;21.40;99.90;;;;;;5114593;28;20040;-69
2022/08/16 07:21:25;;;;;;;62.58;37.83;;;21.50;99.90;;;;;;5115986;28;20058;-69
2022/08/16 07:23:52;;;;;;;58.83;34.22;;;23.20;99.90;;;;;;5097255;28;20039;-69
2022/08/16 07:26:21;;;;;;;61.60;36.60;;;22.40;99.50;;;;;;5095217;28;20119;-69
2022/08/16 07:28:47;;;;;;;51.78;33.78;;;;;;;;;;5110221;28;20503;-69
2022/08/16 07:31:14;;;;;;;60.70;37.50;;;;;;;;;;5113868;28;20048;-69
2022/08/16 07:33:40;;;;;;;58.58;36.53;;;22.60;99.20;;;;;;5098557;28;20123;-69
2022/08/16 07:36:08;;;;;;;51.28;34.70;;;22.10;99.90;;;;;;5095888;28;20044;-69
2022/08/16 07:38:34;;;;;;;47.85;32.08;;;23.40;99.90;;;;;;5094959;28;20040;-69
2022/08/16 07:41:00;;;;;;;54.20;36.05;;;22.70;99.90;;;;;;5095110;28;20035;-70
2022/08/16 07:43:26;;;;;;;60.15;34.92;;;23.50;99.90;;;;;;5107628;28;20119;-70
2022/08/16 07:45:52;;;;;;;53.67;34.92;;;22.90;99.90;;;;;;5101749;28;20535;-70
2022/08/16 07:48:18;;;;;;;56.22;36.15;;;;;;;;;;5104930;28;20380;-70
2022/08/16 07:50:45;;;;;;;52.83;33.53;;;22.20;99.90;;;;;;5115637;28;20043;-70
2022/08/16 07:53:12;;;;;;;57.53;35.30;;;23.50;99.90;;;;;;5085243;28;20040;-70
2022/08/16 07:55:38;;;;;;;51.90;33.05;;;;;;;;;;5103908;28;20059;-70
2022/08/16 07:58:04;;;;;;;51.15;31.90;;;22.80;99.90;;;;;;5103461;28;20047;-70
2022/08/16 08:00:31;;;;;;;51.30;33.70;;;23.30;99.90;;;;;;5088275;28;20040;-71
2022/08/16 08:02:59;;;;;;;55.20;33.22;;;;;;;;;;5103762;28;20460;-70
2022/08/16 08:05:26;;;;;;;58.30;35.65;;;23.70;99.90;;;;;;5099422;28;20044;-70
2022/08/16 08:07:52;;;;;;;49.45;33.10;;;22.10;99.90;;;;;;5104206;28;20039;-70
2022/08/16 08:10:21;;;;;;;50.65;33.75;;;23.40;99.90;;;;;;5103940;28;20500;-70
2022/08/16 08:12:49;;;;;;;46.80;32.88;;;22.70;99.90;;;;;;5085438;28;20151;-70
2022/08/16 08:15:16;;;;;;;51.35;29.48;;;22.50;99.90;;;;;;5104973;28;20115;-70
2022/08/16 08:17:42;;;;;;;47.47;30.02;;;21.80;99.90;;;;;;5069945;28;20036;-70
2022/08/16 08:20:13;;;;;;;49.90;30.50;;;22.90;98.20;;;;;;5104877;28;20043;-70
2022/08/16 08:22:39;;;;;;;46.13;29.52;;;;;;;;;;5103741;28;20044;-71
2022/08/16 08:25:06;;;;;;;47.40;32.33;;;22.90;98.20;;;;;;5085783;28;20040;-70
2022/08/16 08:27:32;;;;;;;48.60;30.73;;;;;;;;;;5104638;28;20475;-70
2022/08/16 08:29:58;;;;;;;50.90;32.97;;;;;;;;;;5103862;28;20035;-71
2022/08/16 08:32:27;;;;;;;53.13;29.70;;;23.90;99.90;;;;;;5100094;28;20048;-71
2022/08/16 08:34:53;;;;;;;52.35;33.95;;;23.30;99.90;;;;;;5095186;28;20052;-71
2022/08/16 08:37:20;;;;;;;47.95;31.98;;;22.50;99.90;;;;;;5111223;28;20043;-71
2022/08/16 08:39:46;;;;;;;38.97;27.63;;;22.90;99.90;;;;;;5100831;28;20039;-71
2022/08/16 08:42:14;;;;;;;50.03;30.05;;;;;;;;;;5105295;28;20119;-71
2022/08/16 08:44:40;;;;;;;50.80;29.52;;;24.10;99.90;;;;;;5092749;28;20046;-71
2022/08/16 08:47:06;;;;;;;42.75;28.00;;;22.60;99.90;;;;;;5097058;28;20051;-71
2022/08/16 08:49:34;;;;;;;39.25;24.83;;;24.20;99.90;;;;;;5099409;28;20480;-71
2022/08/16 08:52:00;;;;;;;40.20;25.75;;;24.10;99.90;;;;;;5099713;28;20437;-71
2022/08/16 08:54:26;;;;;;;41.83;25.73;;;23.60;99.90;;;;;;5110078;28;20043;-71
2022/08/16 08:56:53;;;;;;;43.45;26.67;;;24.30;99.90;;;;;;5115184;28;20065;-71
2022/08/16 08:59:19;;;;;;;36.35;25.38;;;24.60;99.90;;;;;;5102186;28;20511;-71
2022/08/16 09:01:46;;;;;;;37.95;25.65;;;23.10;99.90;;;;;;5096825;28;20063;-71
2022/08/16 09:04:12;;;;;;;48.35;29.10;;;24.70;99.90;;;;;;5109833;28;20090;-70
2022/08/16 09:06:38;;;;;;;45.33;29.17;;;;;;;;;;5102201;28;20028;-70
2022/08/16 09:09:05;;;;;;;44.63;26.67;;;24.40;99.80;;;;;;5101527;28;20503;-70
2022/08/16 09:11:33;;;;;;;49.08;30.52;;;23.80;99.60;;;;;;5103462;28;20054;-69
2022/08/16 09:13:59;;;;;;;47.50;27.00;;;24.50;99.70;;;;;;5105016;28;20062;-70
2022/08/16 09:16:25;;;;;;;47.22;28.25;;;24.60;99.80;;;;;;5103342;28;20369;-71
2022/08/16 09:18:51;;;;;;;46.63;28.42;;;24.90;99.70;;;;;;5105344;28;20035;-71
2022/08/16 09:21:16;;;;;;;38.33;26.83;;;24.90;99.60;;;;;;5113652;28;20048;-71
2022/08/16 09:23:43;;;;;;;48.95;30.42;;;;;;;;;;5114806;28;20039;-71
2022/08/16 09:26:11;;;;;;;49.55;29.35;;;24.70;95.10;;;;;;5113584;28;20031;-70
2022/08/16 09:28:38;;;;;;;40.70;24.13;;;24.10;99.20;;;;;;5096783;28;20383;-71
2022/08/16 09:31:04;;;;;;;39.17;24.95;;;25.30;99.10;;;;;;5113543;28;20506;-71
2022/08/16 09:33:30;;;;;;;45.05;26.58;;;25.30;98.80;;;;;;5113475;28;20043;-71
2022/08/16 09:35:56;;;;;;;45.00;27.70;;;24.90;94.90;;;;;;5113490;28;20051;-71
2022/08/16 09:38:23;;;;;;;44.90;30.48;;;24.70;94.40;;;;;;5114816;28;20047;-71
2022/08/16 09:40:49;;;;;;;40.75;25.75;;;25.20;99.00;;;;;;5112320;28;20039;-76
2022/08/16 09:43:18;;;;;;;52.90;27.08;;;25.50;98.80;;;;;;5110529;28;20031;-70
2022/08/16 09:45:45;;;;;;;45.25;28.60;;;25.00;95.50;;;;;;5114137;28;20063;-70
2022/08/16 09:48:13;;;;;;;44.35;25.73;;;25.40;98.10;;;;;;5086396;28;20104;-71
2022/08/16 09:50:40;;;;;;;45.92;27.63;;;25.80;98.00;;;;;;5112419;28;20126;-71
2022/08/16 09:53:21;;;;;;;47.78;24.38;;;25.50;97.90;;;;;;5110109;28;20043;-71
2022/08/16 09:55:51;;;;;;;44.47;27.90;;;25.10;94.50;;;;;;5113015;28;20050;-71
2022/08/16 09:58:18;;;;;;;38.53;25.48;;;26.00;96.50;;;;;;5105074;28;20040;-71
2022/08/16 10:00:44;;;;;;;48.85;29.88;;;25.50;97.70;;;;;;5112830;28;20484;-71
2022/08/16 10:03:10;;;;;;;46.45;27.52;;;26.10;97.70;;;;;;5080033;28;20123;-71
2022/08/16 10:05:36;;;;;;;57.28;25.17;;;24.80;97.40;;;;;;5113879;28;20074;-71
2022/08/16 10:08:06;;;;;;;41.88;28.77;;;25.60;93.80;;;;;;5081990;28;20079;-71
2022/08/16 10:10:33;;;;;;;48.33;26.70;;;25.80;97.30;;;;;;5092578;28;20186;-71
2022/08/16 10:13:12;;;;;;;46.40;27.25;;;25.00;93.80;;;;;;5104946;28;20043;-71
2022/08/16 10:15:43;;;;;;;52.80;29.30;;;26.40;97.20;;;;;;5092469;28;20507;-71
2022/08/16 10:18:11;;;;;;;43.28;25.90;;;25.90;92.90;;;;;;5105959;28;20055;-71
2022/08/16 10:20:44;;;;;;;45.38;26.58;;;25.80;96.90;;;;;;5099476;28;20445;-71
2022/08/16 10:23:13;;;;;;;42.35;27.80;;;25.80;96.40;;;;;;5105316;28;20071;-71
2022/08/16 10:25:41;;;;;;;43.58;25.40;;;26.10;96.80;;;;;;5112299;28;20071;-71
2022/08/16 10:28:07;;;;;;;39.50;24.35;;;26.20;96.60;;;;;;5104768;28;20040;-70
2022/08/16 10:30:34;;;;;;;53.10;28.45;;;26.60;96.50;;;;;;5076479;28;20036;-71
2022/08/16 10:33:00;;;;;;;39.88;21.75;;;26.20;96.40;;;;;;5104236;28;20129;-70
2022/08/16 10:35:26;;;;;;;41.95;25.25;;;26.20;96.10;;;;;;5095038;28;20077;-70
2022/08/16 10:37:52;;;;;;;39.00;23.40;;;;;;;;;;5086426;28;20125;-71
2022/08/16 10:40:19;;;;;;;42.17;23.65;;;26.30;90.70;;;;;;5108127;28;20184;-71
2022/08/16 10:42:46;;;;;;;36.10;21.13;;;26.40;95.80;;;;;;5104714;28;20480;-71
2022/08/16 10:45:12;;;;;;;32.45;20.45;;;26.30;91.60;;;;;;5092178;28;20055;-70
2022/08/16 10:47:37;;;;;;;33.47;19.50;;;26.60;95.30;;;;;;5075805;28;20036;-70
2022/08/16 10:50:05;;;;;;;43.25;22.40;;;26.70;95.40;;;;;;5104130;28;20050;-71
2022/08/16 10:52:32;;;;;;;33.47;20.15;;;26.30;95.30;;;;;;5109229;28;20096;-71
2022/08/16 10:54:59;;;;;;;34.58;20.00;;;26.90;95.60;;;;;;5098747;28;20044;-71
2022/08/16 10:57:30;;;;;;;33.75;19.50;;;26.20;91.50;;;;;;5112535;28;20052;-71
2022/08/16 10:59:59;;;;;;;35.92;21.35;;;27.20;90.30;;;;;;5098147;28;20117;-71
2022/08/16 11:02:25;;;;;;;31.58;18.05;;;26.80;91.50;;;;;;5075363;28;20105;-71
2022/08/16 11:04:53;;;;;;;38.95;20.58;;;26.70;90.10;;;;;;5094446;28;20438;-76
2022/08/16 11:07:19;;;;;;;33.20;19.63;;;27.10;94.90;;;;;;5106676;28;20506;-71
2022/08/16 11:09:44;;;;;;;31.80;18.88;;;26.60;94.80;;;;;;5095928;28;20071;-71
2022/08/16 11:12:11;;;;;;;35.75;21.65;;;26.40;94.40;;;;;;5112132;28;20087;-71
2022/08/16 11:14:37;;;;;;;34.40;19.73;;;26.60;94.50;;;;;;5113496;28;20407;-71
2022/08/16 11:17:04;;;;;;;32.13;17.52;;;26.10;94.00;;;;;;5112341;28;20118;-71
2022/08/16 11:19:31;;;;;;;32.40;18.20;;;26.30;93.80;;;;;;5112044;28;20051;-71
2022/08/16 11:21:58;;;;;;;31.30;20.60;;;26.20;94.20;;;;;;5078399;28;20399;-71
2022/08/16 11:24:24;;;;;;;49.20;25.50;;;27.30;94.10;;;;;;5112046;28;20079;-71
2022/08/16 11:26:51;;;;;;;35.70;18.23;;;27.10;93.90;;;;;;5111985;28;20475;-71
2022/08/16 11:29:17;;;;;;;32.15;18.48;;;;;;;;;;5111761;28;20083;-71
2022/08/16 11:31:45;;;;;;;36.92;20.02;;;27.10;86.50;;;;;;5115121;28;20043;-71
2022/08/16 11:34:14;;;;;;;34.55;19.35;;;26.80;93.40;;;;;;5115820;28;20085;-71
2022/08/16 11:36:40;;;;;;;41.35;22.38;;;27.30;93.70;;;;;;5115462;28;20046;-72
2022/08/16 11:39:05;;;;;;;35.63;21.60;;;26.70;93.40;;;;;;5115849;28;20043;-71
2022/08/16 11:41:34;;;;;;;38.20;19.63;;;;;;;;;;5115561;28;20123;-72
2022/08/16 11:44:00;;;;;;;32.95;20.17;;;26.70;93.40;;;;;;5082479;28;20125;-71
2022/08/16 11:46:27;;;;;;;29.98;18.23;;;27.30;93.30;;;;;;5115603;28;20042;-71
2022/08/16 11:48:53;;;;;;;29.00;16.98;;;27.00;88.40;;;;;;5115548;28;20548;-71
2022/08/16 11:51:20;;;;;;;33.97;19.73;;;26.70;93.30;;;;;;5116772;28;20051;-71
2022/08/16 11:53:45;;;;;;;32.47;19.10;;;26.90;92.80;;;;;;5115704;28;20043;-72
2022/08/16 11:56:11;;;;;;;31.77;16.77;;;27.40;92.90;;;;;;5115221;28;20449;-71
2022/08/16 11:58:40;;;;;;;31.40;16.85;;;;;;;;;;5115548;28;20047;-72
2022/08/16 12:01:06;;;;;;;30.20;16.27;;;27.20;92.70;;;;;;5115083;28;20044;-71
2022/08/16 12:03:32;;;;;;;38.30;18.83;;;27.20;92.30;;;;;;5115200;28;20040;-71
2022/08/16 12:06:01;;;;;;;33.20;16.77;;;27.50;92.50;;;;;;5098555;28;20040;-71
2022/08/16 12:08:30;;;;;;;31.20;15.38;;;27.00;92.10;;;;;;5115139;28;20051;-71
2022/08/16 12:10:55;;;;;;;32.40;18.20;;;27.80;92.20;;;;;;5115206;28;20440;-71
2022/08/16 12:13:21;;;;;;;31.20;19.20;;;27.90;91.80;;;;;;5115018;28;20138;-71
2022/08/16 12:15:47;;;;;;;43.42;20.00;;;27.00;91.50;;;;;;5115056;28;20079;-71
2022/08/16 12:18:13;;;;;;;29.15;18.95;;;;;;;;;;5097809;28;20050;-71
2022/08/16 12:20:43;;;;;;;30.63;18.25;;;27.90;84.70;;;;;;5097698;28;20040;-71
2022/08/16 12:23:09;;;;;;;30.15;19.08;;;27.40;91.40;;;;;;5114849;28;20043;-71
2022/08/16 12:25:36;;;;;;;30.75;19.60;;;27.20;91.60;;;;;;5114210;28;20059;-71
2022/08/16 12:28:03;;;;;;;30.55;18.90;;;26.50;91.30;;;;;;5114837;28;20031;-71
2022/08/16 12:30:33;;;;;;;27.95;16.58;;;27.10;84.10;;;;;;5114969;28;20043;-71
2022/08/16 12:33:00;;;;;;;30.10;19.85;;;27.50;85.70;;;;;;5114962;28;20395;-71
2022/08/16 12:35:28;;;;;;;32.60;19.75;;;27.30;82.10;;;;;;5114710;28;20126;-71
2022/08/16 12:37:56;;;;;;;30.42;19.38;;;26.70;90.40;;;;;;5080905;28;20048;-71
2022/08/16 12:40:26;;;;;;;29.08;18.08;;;27.10;82.80;;;;;;5114449;28;20050;-71
2022/08/16 12:42:54;;;;;;;28.63;17.25;;;27.60;91.10;;;;;;5113742;28;20032;-71